Time;durP1;ratioP1;P1;durP2;ratioP2;P2;SDS_P1;SDS_P2;PMS_P1;PMS_P2;Temp;Humidity;BMP_temperature;BMP_pressure;BME280_temperature;BME280_humidity;BME280_pressure;Samples;Min_cycle;Max_cycle;Signal;HPM_P1;HPM_P2
2022/01/22 00:31:30;;;;;;;4.17;3.77;;;;;;;-2.56;61.13;94604.64;833414;71;33046;-79
2022/01/22 00:46:24;;;;;;;4.28;3.87;;;;;;;-2.48;61.16;94605.19;827245;71;32686;-79
2022/01/22 01:16:21;;;;;;;6.25;3.90;;;;;;;-2.51;60.79;94601.76;833690;71;32708;-76
2022/01/22 01:46:15;;;;;;;3.40;3.02;;;;;;;-2.28;60.33;94567.08;834925;71;32699;-76
2022/01/22 02:01:09;;;;;;;3.42;3.10;;;;;;;-2.29;59.50;94552.16;833739;71;30346;-77
2022/01/22 02:31:32;;;;;;;2.90;2.47;;;;;;;-2.09;59.00;94533.25;827867;71;32621;-77
2022/01/22 02:46:14;;;;;;;3.45;2.58;;;;;;;-2.24;57.95;94519.42;835882;71;31501;-78
2022/01/22 03:01:18;;;;;;;4.90;2.80;;;;;;;-2.47;58.27;94514.31;821416;71;32779;-79
2022/01/22 03:31:49;;;;;;;4.03;2.60;;;;;;;-2.66;58.26;94480.02;817734;70;32716;-81
2022/01/22 03:46:14;;;;;;;4.03;2.92;;;;;;;-2.80;58.24;94467.45;829167;71;32325;-77
2022/01/22 04:02:00;;;;;;;3.05;2.62;;;;;;;-2.82;58.29;94465.90;820494;71;32846;-80
2022/01/22 04:16:17;;;;;;;4.47;3.00;;;;;;;-2.67;58.81;94471.26;827554;71;32704;-78
2022/01/22 04:31:11;;;;;;;4.75;3.08;;;;;;;-2.65;58.71;94458.49;819212;71;31147;-79
2022/01/22 05:01:10;;;;;;;5.40;3.85;;;;;;;-2.38;59.76;94421.08;828008;71;30223;-79
2022/01/22 05:16:11;;;;;;;3.62;3.30;;;;;;;-2.36;59.53;94422.95;828208;71;31438;-79
2022/01/22 05:46:11;;;;;;;4.37;3.20;;;;;;;-2.10;59.10;94432.23;834615;71;30331;-80
2022/01/22 06:01:10;;;;;;;5.55;3.20;;;;;;;-2.09;59.62;94429.97;833982;71;30344;-78
2022/01/22 06:16:14;;;;;;;6.60;4.08;;;;;;;-2.08;60.39;94417.39;827832;71;31970;-78
2022/01/22 06:31:15;;;;;;;3.95;3.02;;;;;;;-2.09;59.62;94413.27;827215;71;32694;-77
2022/01/22 06:46:14;;;;;;;5.33;3.40;;;;;;;-2.26;58.93;94383.94;825162;71;32872;-78
2022/01/22 07:01:11;;;;;;;5.12;4.08;;;;;;;-1.87;58.60;94402.58;827405;71;29807;-77
2022/01/22 07:16:09;;;;;;;4.55;3.30;;;;;;;-1.67;57.14;94395.45;833235;71;30310;-78
2022/01/22 07:31:19;;;;;;;4.25;3.47;;;;;;;0.94;54.63;94380.72;819321;71;32763;-79
2022/01/22 07:46:09;;;;;;;5.17;4.70;;;;;;;2.28;50.70;94361.13;827360;71;29952;-75
2022/01/22 08:01:20;;;;;;;3.90;3.50;;;;;;;2.61;49.00;94363.36;833027;71;32612;-81
2022/01/22 08:16:09;;;;;;;4.20;3.80;;;;;;;4.74;46.54;94344.30;827679;71;29321;-76
2022/01/22 08:31:20;;;;;;;5.35;3.52;;;;;;;6.99;41.87;94327.27;827620;71;28786;-80
2022/01/22 09:01:39;;;;;;;5.60;4.72;;;;;;;9.37;37.74;94333.97;833943;71;31737;-83
2022/01/22 09:16:11;;;;;;;6.25;3.85;;;;;;;8.03;37.51;94345.89;827823;71;29945;-80
2022/01/22 11:31:29;;;;;;;5.83;4.65;;;;;;;8.44;35.05;94189.73;800743;73;32548;-84
2022/01/22 11:46:56;;;;;;;;;;;;;;;;;;;;;
2022/01/22 13:16:32;;;;;;;;;;;;;;;;;;;;;
2022/01/22 13:31:26;;;;;;;4.17;3.87;;;;;;;2.39;49.13;94122.08;834646;71;31838;-79
2022/01/22 14:16:28;;;;;;;5.45;4.35;;;;;;;1.89;49.72;94105.02;818308;71;32250;-81
2022/01/22 14:31:29;;;;;;;5.10;4.70;;;;;;;1.70;50.87;94115.40;833791;71;30085;-79
2022/01/22 14:46:14;;;;;;;4.67;3.90;;;;;;;1.54;51.92;94110.06;828143;71;31796;-79
2022/01/22 15:01:09;;;;;;;5.10;4.28;;;;;;;1.03;53.27;94122.30;821266;71;29458;-79
2022/01/22 15:16:10;;;;;;;4.05;3.65;;;;;;;0.56;55.99;94130.38;820614;71;30589;-79
2022/01/22 15:31:15;;;;;;;5.65;4.35;;;;;;;0.20;56.81;94145.25;827028;71;29704;-78
2022/01/22 15:46:11;;;;;;;5.20;4.70;;;;;;;-0.12;58.18;94152.66;822670;71;31599;-80
2022/01/22 16:01:18;;;;;;;5.50;4.35;;;;;;;-0.38;59.25;94168.94;825186;71;33228;-81
2022/01/22 16:16:09;;;;;;;6.87;4.33;;;;;;;-0.59;60.09;94184.46;821721;71;30512;-81
2022/01/22 16:31:10;;;;;;;13.90;8.23;;;;;;;-0.71;62.51;94224.42;827843;71;30368;-82
2022/01/22 16:46:32;;;;;;;6.67;4.87;;;;;;;-0.72;62.38;94243.95;827375;71;33143;-82
